sensor_id;sensor_type;location;lat;lon;timestamp;temperature;humidity
30379;DHT22;17168;49.164;9.060;2022-08-16T00:00:20;19.90;86.70
30379;DHT22;17168;49.164;9.060;2022-08-16T00:02:53;19.90;86.60
30379;DHT22;17168;49.164;9.060;2022-08-16T00:05:25;19.90;86.70
30379;DHT22;17168;49.164;9.060;2022-08-16T00:07:58;19.90;86.80
30379;DHT22;17168;49.164;9.060;2022-08-16T00:10:30;19.90;86.80
30379;DHT22;17168;49.164;9.060;2022-08-16T00:13:04;19.90;87.00
30379;DHT22;17168;49.164;9.060;2022-08-16T00:15:40;19.90;87.00
30379;DHT22;17168;49.164;9.060;2022-08-16T00:18:22;19.90;87.00
30379;DHT22;17168;49.164;9.060;2022-08-16T00:21:00;19.90;87.20
30379;DHT22;17168;49.164;9.060;2022-08-16T00:23:34;19.90;87.30
30379;DHT22;17168;49.164;9.060;2022-08-16T00:26:16;19.90;87.50
30379;DHT22;17168;49.164;9.060;2022-08-16T00:29:08;19.90;87.30
30379;DHT22;17168;49.164;9.060;2022-08-16T00:31:43;19.90;87.20
30379;DHT22;17168;49.164;9.060;2022-08-16T00:34:33;19.90;87.70
30379;DHT22;17168;49.164;9.060;2022-08-16T00:37:25;19.80;87.40
30379;DHT22;17168;49.164;9.060;2022-08-16T00:40:26;19.80;87.60
30379;DHT22;17168;49.164;9.060;2022-08-16T00:43:10;19.80;87.60
30379;DHT22;17168;49.164;9.060;2022-08-16T00:45:53;19.80;87.70
30379;DHT22;17168;49.164;9.060;2022-08-16T00:48:32;19.80;87.80
30379;DHT22;17168;49.164;9.060;2022-08-16T00:51:18;19.80;88.00
30379;DHT22;17168;49.164;9.060;2022-08-16T00:53:52;19.70;88.60
30379;DHT22;17168;49.164;9.060;2022-08-16T00:56:27;19.70;89.30
30379;DHT22;17168;49.164;9.060;2022-08-16T00:59:22;19.60;88.60
30379;DHT22;17168;49.164;9.060;2022-08-16T01:01:55;19.50;89.30
30379;DHT22;17168;49.164;9.060;2022-08-16T01:04:30;19.50;89.80
30379;DHT22;17168;49.164;9.060;2022-08-16T01:07:05;19.40;90.10
30379;DHT22;17168;49.164;9.060;2022-08-16T01:09:38;19.40;90.20
30379;DHT22;17168;49.164;9.060;2022-08-16T01:12:13;19.40;90.20
30379;DHT22;17168;49.164;9.060;2022-08-16T01:14:59;19.40;90.20
30379;DHT22;17168;49.164;9.060;2022-08-16T01:17:31;19.50;90.30
30379;DHT22;17168;49.164;9.060;2022-08-16T01:20:10;19.50;90.40
30379;DHT22;17168;49.164;9.060;2022-08-16T01:23:06;19.40;90.40
30379;DHT22;17168;49.164;9.060;2022-08-16T01:25:51;19.40;90.40
30379;DHT22;17168;49.164;9.060;2022-08-16T01:28:44;19.40;90.50
30379;DHT22;17168;49.164;9.060;2022-08-16T01:31:17;19.30;90.50
30379;DHT22;17168;49.164;9.060;2022-08-16T01:34:02;19.30;90.70
30379;DHT22;17168;49.164;9.060;2022-08-16T01:36:37;19.20;90.90
30379;DHT22;17168;49.164;9.060;2022-08-16T01:39:10;19.10;91.00
30379;DHT22;17168;49.164;9.060;2022-08-16T01:41:45;19.00;91.10
30379;DHT22;17168;49.164;9.060;2022-08-16T01:44:16;19.00;91.10
30379;DHT22;17168;49.164;9.060;2022-08-16T01:46:49;19.00;91.00
30379;DHT22;17168;49.164;9.060;2022-08-16T01:49:22;19.00;91.10
30379;DHT22;17168;49.164;9.060;2022-08-16T01:51:55;19.00;91.20
30379;DHT22;17168;49.164;9.060;2022-08-16T01:54:28;18.90;90.80
30379;DHT22;17168;49.164;9.060;2022-08-16T01:57:04;18.90;90.90
30379;DHT22;17168;49.164;9.060;2022-08-16T01:59:36;18.90;91.10
30379;DHT22;17168;49.164;9.060;2022-08-16T02:02:10;18.90;91.10
30379;DHT22;17168;49.164;9.060;2022-08-16T02:04:57;18.90;90.90
30379;DHT22;17168;49.164;9.060;2022-08-16T02:07:31;18.90;91.00
30379;DHT22;17168;49.164;9.060;2022-08-16T02:10:03;18.90;91.00
30379;DHT22;17168;49.164;9.060;2022-08-16T02:12:36;18.90;91.00
30379;DHT22;17168;49.164;9.060;2022-08-16T02:15:23;18.90;91.10
30379;DHT22;17168;49.164;9.060;2022-08-16T02:17:57;18.90;91.20
30379;DHT22;17168;49.164;9.060;2022-08-16T02:20:32;18.90;91.20
30379;DHT22;17168;49.164;9.060;2022-08-16T02:23:06;18.90;91.10
30379;DHT22;17168;49.164;9.060;2022-08-16T02:25:38;18.80;91.10
30379;DHT22;17168;49.164;9.060;2022-08-16T02:28:25;18.80;91.10
30379;DHT22;17168;49.164;9.060;2022-08-16T02:30:59;18.80;91.00
30379;DHT22;17168;49.164;9.060;2022-08-16T02:33:32;18.80;91.00
30379;DHT22;17168;49.164;9.060;2022-08-16T02:36:19;18.80;91.10
30379;DHT22;17168;49.164;9.060;2022-08-16T02:39:13;18.70;91.20
30379;DHT22;17168;49.164;9.060;2022-08-16T02:41:47;18.70;91.30
30379;DHT22;17168;49.164;9.060;2022-08-16T02:44:25;18.70;91.40
30379;DHT22;17168;49.164;9.060;2022-08-16T02:46:59;18.60;91.40
30379;DHT22;17168;49.164;9.060;2022-08-16T02:49:33;18.60;91.40
30379;DHT22;17168;49.164;9.060;2022-08-16T02:52:25;18.60;91.60
30379;DHT22;17168;49.164;9.060;2022-08-16T02:55:00;18.60;91.60
30379;DHT22;17168;49.164;9.060;2022-08-16T02:57:32;18.50;91.70
30379;DHT22;17168;49.164;9.060;2022-08-16T03:00:08;18.50;91.90
30379;DHT22;17168;49.164;9.060;2022-08-16T03:03:01;18.50;92.20
30379;DHT22;17168;49.164;9.060;2022-08-16T03:05:34;18.30;92.40
30379;DHT22;17168;49.164;9.060;2022-08-16T03:08:06;18.30;92.40
30379;DHT22;17168;49.164;9.060;2022-08-16T03:10:57;18.30;92.30
30379;DHT22;17168;49.164;9.060;2022-08-16T03:13:30;18.30;92.30
30379;DHT22;17168;49.164;9.060;2022-08-16T03:16:12;18.30;92.40
30379;DHT22;17168;49.164;9.060;2022-08-16T03:19:04;18.30;92.50
30379;DHT22;17168;49.164;9.060;2022-08-16T03:21:36;18.30;92.40
30379;DHT22;17168;49.164;9.060;2022-08-16T03:24:09;18.20;92.40
30379;DHT22;17168;49.164;9.060;2022-08-16T03:27:01;18.20;92.40
30379;DHT22;17168;49.164;9.060;2022-08-16T03:29:33;18.20;92.50
30379;DHT22;17168;49.164;9.060;2022-08-16T03:32:06;18.20;92.50
30379;DHT22;17168;49.164;9.060;2022-08-16T03:34:38;18.20;92.50
30379;DHT22;17168;49.164;9.060;2022-08-16T03:37:11;18.20;92.60
30379;DHT22;17168;49.164;9.060;2022-08-16T03:39:44;18.10;92.70
30379;DHT22;17168;49.164;9.060;2022-08-16T03:42:16;18.10;92.40
30379;DHT22;17168;49.164;9.060;2022-08-16T03:44:53;18.10;92.60
30379;DHT22;17168;49.164;9.060;2022-08-16T03:47:35;18.10;92.70
30379;DHT22;17168;49.164;9.060;2022-08-16T03:50:07;18.10;92.70
30379;DHT22;17168;49.164;9.060;2022-08-16T03:52:57;18.10;92.70
30379;DHT22;17168;49.164;9.060;2022-08-16T03:55:36;18.10;92.80
30379;DHT22;17168;49.164;9.060;2022-08-16T03:58:16;18.10;93.00
30379;DHT22;17168;49.164;9.060;2022-08-16T04:00:48;18.00;93.00
30379;DHT22;17168;49.164;9.060;2022-08-16T04:03:31;18.00;93.00
30379;DHT22;17168;49.164;9.060;2022-08-16T04:06:03;18.00;93.00
30379;DHT22;17168;49.164;9.060;2022-08-16T04:08:35;18.00;92.60
30379;DHT22;17168;49.164;9.060;2022-08-16T04:11:10;18.00;92.70
30379;DHT22;17168;49.164;9.060;2022-08-16T04:13:47;18.00;92.80
30379;DHT22;17168;49.164;9.060;2022-08-16T04:16:38;18.00;92.90
30379;DHT22;17168;49.164;9.060;2022-08-16T04:19:11;18.00;92.90
30379;DHT22;17168;49.164;9.060;2022-08-16T04:21:43;18.00;92.90
30379;DHT22;17168;49.164;9.060;2022-08-16T04:24:18;18.00;92.90
30379;DHT22;17168;49.164;9.060;2022-08-16T04:26:50;17.90;92.90
30379;DHT22;17168;49.164;9.060;2022-08-16T04:29:24;18.00;92.90
30379;DHT22;17168;49.164;9.060;2022-08-16T04:31:55;17.90;92.80
30379;DHT22;17168;49.164;9.060;2022-08-16T04:34:30;17.90;92.90
30379;DHT22;17168;49.164;9.060;2022-08-16T04:37:03;17.90;93.10
30379;DHT22;17168;49.164;9.060;2022-08-16T04:39:35;17.90;93.20
30379;DHT22;17168;49.164;9.060;2022-08-16T04:42:25;17.90;93.30
30379;DHT22;17168;49.164;9.060;2022-08-16T04:45:00;17.90;93.40
30379;DHT22;17168;49.164;9.060;2022-08-16T04:47:33;17.90;93.50
30379;DHT22;17168;49.164;9.060;2022-08-16T04:50:08;17.90;93.70
30379;DHT22;17168;49.164;9.060;2022-08-16T04:52:41;17.90;93.80
30379;DHT22;17168;49.164;9.060;2022-08-16T04:55:16;17.90;94.00
30379;DHT22;17168;49.164;9.060;2022-08-16T04:57:49;17.90;94.20
30379;DHT22;17168;49.164;9.060;2022-08-16T05:00:25;17.90;93.90
30379;DHT22;17168;49.164;9.060;2022-08-16T05:03:04;17.90;94.20
30379;DHT22;17168;49.164;9.060;2022-08-16T05:05:40;17.90;94.40
30379;DHT22;17168;49.164;9.060;2022-08-16T05:08:26;17.90;94.60
30379;DHT22;17168;49.164;9.060;2022-08-16T05:11:02;17.90;94.70
30379;DHT22;17168;49.164;9.060;2022-08-16T05:13:37;17.90;94.90
30379;DHT22;17168;49.164;9.060;2022-08-16T05:16:13;17.90;94.90
30379;DHT22;17168;49.164;9.060;2022-08-16T05:18:52;17.90;95.00
30379;DHT22;17168;49.164;9.060;2022-08-16T05:21:28;18.00;95.20
30379;DHT22;17168;49.164;9.060;2022-08-16T05:24:08;18.00;95.30
30379;DHT22;17168;49.164;9.060;2022-08-16T05:26:41;18.00;95.50
30379;DHT22;17168;49.164;9.060;2022-08-16T05:29:22;18.10;95.60
30379;DHT22;17168;49.164;9.060;2022-08-16T05:32:13;18.10;95.70
30379;DHT22;17168;49.164;9.060;2022-08-16T05:35:05;18.20;95.90
30379;DHT22;17168;49.164;9.060;2022-08-16T05:37:42;18.20;96.00
30379;DHT22;17168;49.164;9.060;2022-08-16T05:40:14;18.30;96.30
30379;DHT22;17168;49.164;9.060;2022-08-16T05:42:46;18.30;96.40
30379;DHT22;17168;49.164;9.060;2022-08-16T05:45:20;18.30;96.50
30379;DHT22;17168;49.164;9.060;2022-08-16T05:47:54;18.40;96.60
30379;DHT22;17168;49.164;9.060;2022-08-16T05:50:32;18.40;96.70
30379;DHT22;17168;49.164;9.060;2022-08-16T05:53:06;18.50;96.80
30379;DHT22;17168;49.164;9.060;2022-08-16T05:55:40;18.50;96.60
30379;DHT22;17168;49.164;9.060;2022-08-16T05:58:12;18.50;96.80
30379;DHT22;17168;49.164;9.060;2022-08-16T06:01:03;18.60;97.00
30379;DHT22;17168;49.164;9.060;2022-08-16T06:03:36;18.60;97.20
30379;DHT22;17168;49.164;9.060;2022-08-16T06:06:08;18.60;97.70
30379;DHT22;17168;49.164;9.060;2022-08-16T06:08:41;18.70;97.60
30379;DHT22;17168;49.164;9.060;2022-08-16T06:11:17;18.70;97.80
30379;DHT22;17168;49.164;9.060;2022-08-16T06:13:49;18.80;97.80
30379;DHT22;17168;49.164;9.060;2022-08-16T06:16:21;18.80;97.80
30379;DHT22;17168;49.164;9.060;2022-08-16T06:18:57;18.90;97.80
30379;DHT22;17168;49.164;9.060;2022-08-16T06:21:35;19.00;97.80
30379;DHT22;17168;49.164;9.060;2022-08-16T06:24:09;19.10;97.70
30379;DHT22;17168;49.164;9.060;2022-08-16T06:27:01;19.20;97.80
30379;DHT22;17168;49.164;9.060;2022-08-16T06:29:33;19.20;97.80
30379;DHT22;17168;49.164;9.060;2022-08-16T06:32:05;19.30;97.80
30379;DHT22;17168;49.164;9.060;2022-08-16T06:34:37;19.40;97.80
30379;DHT22;17168;49.164;9.060;2022-08-16T06:37:29;19.50;97.80
30379;DHT22;17168;49.164;9.060;2022-08-16T06:40:10;19.50;97.70
30379;DHT22;17168;49.164;9.060;2022-08-16T06:42:46;19.60;97.70
30379;DHT22;17168;49.164;9.060;2022-08-16T06:45:19;19.70;97.70
30379;DHT22;17168;49.164;9.060;2022-08-16T06:47:54;19.80;97.80
30379;DHT22;17168;49.164;9.060;2022-08-16T06:50:27;19.90;97.70
30379;DHT22;17168;49.164;9.060;2022-08-16T06:53:02;19.90;97.60
30379;DHT22;17168;49.164;9.060;2022-08-16T06:55:41;20.00;97.60
30379;DHT22;17168;49.164;9.060;2022-08-16T06:58:13;20.10;97.60
30379;DHT22;17168;49.164;9.060;2022-08-16T07:00:53;20.20;97.50
30379;DHT22;17168;49.164;9.060;2022-08-16T07:03:28;20.30;97.50
30379;DHT22;17168;49.164;9.060;2022-08-16T07:06:21;20.40;97.40
30379;DHT22;17168;49.164;9.060;2022-08-16T07:08:57;20.50;97.40
30379;DHT22;17168;49.164;9.060;2022-08-16T07:11:30;20.60;97.30
30379;DHT22;17168;49.164;9.060;2022-08-16T07:14:22;20.70;97.20
30379;DHT22;17168;49.164;9.060;2022-08-16T07:16:58;20.80;97.10
30379;DHT22;17168;49.164;9.060;2022-08-16T07:19:30;20.90;97.00
30379;DHT22;17168;49.164;9.060;2022-08-16T07:22:25;21.00;96.80
30379;DHT22;17168;49.164;9.060;2022-08-16T07:25:12;21.10;96.70
30379;DHT22;17168;49.164;9.060;2022-08-16T07:27:45;21.20;96.60
30379;DHT22;17168;49.164;9.060;2022-08-16T07:30:18;21.30;96.60
30379;DHT22;17168;49.164;9.060;2022-08-16T07:33:10;21.30;96.40
30379;DHT22;17168;49.164;9.060;2022-08-16T07:35:46;21.50;96.20
30379;DHT22;17168;49.164;9.060;2022-08-16T07:38:20;21.50;96.00
30379;DHT22;17168;49.164;9.060;2022-08-16T07:41:05;21.60;95.70
30379;DHT22;17168;49.164;9.060;2022-08-16T07:43:42;21.70;95.50
30379;DHT22;17168;49.164;9.060;2022-08-16T07:46:14;21.80;95.30
30379;DHT22;17168;49.164;9.060;2022-08-16T07:49:06;21.80;95.00
30379;DHT22;17168;49.164;9.060;2022-08-16T07:51:42;21.90;94.70
30379;DHT22;17168;49.164;9.060;2022-08-16T07:54:14;22.00;94.50
30379;DHT22;17168;49.164;9.060;2022-08-16T07:56:52;22.10;94.30
30379;DHT22;17168;49.164;9.060;2022-08-16T07:59:25;22.10;94.10
30379;DHT22;17168;49.164;9.060;2022-08-16T08:02:16;22.20;93.90
30379;DHT22;17168;49.164;9.060;2022-08-16T08:04:51;22.30;93.60
30379;DHT22;17168;49.164;9.060;2022-08-16T08:07:23;22.30;93.40
30379;DHT22;17168;49.164;9.060;2022-08-16T08:09:58;22.40;93.10
30379;DHT22;17168;49.164;9.060;2022-08-16T08:12:31;22.40;92.90
30379;DHT22;17168;49.164;9.060;2022-08-16T08:15:10;22.40;92.70
30379;DHT22;17168;49.164;9.060;2022-08-16T08:17:42;22.50;92.60
30379;DHT22;17168;49.164;9.060;2022-08-16T08:20:21;22.50;92.40
30379;DHT22;17168;49.164;9.060;2022-08-16T08:23:00;22.60;92.30
30379;DHT22;17168;49.164;9.060;2022-08-16T08:25:32;22.70;92.10
30379;DHT22;17168;49.164;9.060;2022-08-16T08:28:24;22.80;91.80
30379;DHT22;17168;49.164;9.060;2022-08-16T08:30:58;22.80;91.40
30379;DHT22;17168;49.164;9.060;2022-08-16T08:33:33;22.90;91.10
30379;DHT22;17168;49.164;9.060;2022-08-16T08:36:07;23.00;90.70
30379;DHT22;17168;49.164;9.060;2022-08-16T08:38:52;23.00;90.30
30379;DHT22;17168;49.164;9.060;2022-08-16T08:41:25;23.10;90.10
30379;DHT22;17168;49.164;9.060;2022-08-16T08:43:59;23.20;89.80
30379;DHT22;17168;49.164;9.060;2022-08-16T08:46:52;23.30;89.10
30379;DHT22;17168;49.164;9.060;2022-08-16T08:49:33;23.30;88.30
30379;DHT22;17168;49.164;9.060;2022-08-16T08:52:25;23.40;87.60
30379;DHT22;17168;49.164;9.060;2022-08-16T08:55:10;23.50;87.40
30379;DHT22;17168;49.164;9.060;2022-08-16T08:57:45;23.60;87.20
30379;DHT22;17168;49.164;9.060;2022-08-16T09:00:19;23.70;85.90
30379;DHT22;17168;49.164;9.060;2022-08-16T09:02:59;23.80;84.90
30379;DHT22;17168;49.164;9.060;2022-08-16T09:05:35;23.90;83.80
30379;DHT22;17168;49.164;9.060;2022-08-16T09:08:08;24.00;83.00
30379;DHT22;17168;49.164;9.060;2022-08-16T09:10:40;24.10;82.40
30379;DHT22;17168;49.164;9.060;2022-08-16T09:13:12;24.20;82.10
30379;DHT22;17168;49.164;9.060;2022-08-16T09:15:44;24.20;81.20
30379;DHT22;17168;49.164;9.060;2022-08-16T09:18:20;24.30;81.00
30379;DHT22;17168;49.164;9.060;2022-08-16T09:20:57;24.40;80.40
30379;DHT22;17168;49.164;9.060;2022-08-16T09:23:32;24.50;80.10
30379;DHT22;17168;49.164;9.060;2022-08-16T09:26:09;24.60;79.70
30379;DHT22;17168;49.164;9.060;2022-08-16T09:29:01;24.70;79.20
30379;DHT22;17168;49.164;9.060;2022-08-16T09:31:47;24.80;78.70
30379;DHT22;17168;49.164;9.060;2022-08-16T09:34:25;24.90;78.20
30379;DHT22;17168;49.164;9.060;2022-08-16T09:36:57;25.00;77.80
30379;DHT22;17168;49.164;9.060;2022-08-16T09:39:30;25.10;77.40
30379;DHT22;17168;49.164;9.060;2022-08-16T09:42:12;25.20;77.50
30379;DHT22;17168;49.164;9.060;2022-08-16T09:44:49;25.30;77.10
30379;DHT22;17168;49.164;9.060;2022-08-16T09:47:41;25.40;76.60
30379;DHT22;17168;49.164;9.060;2022-08-16T09:50:29;25.50;75.90
30379;DHT22;17168;49.164;9.060;2022-08-16T09:53:12;25.60;75.20
30379;DHT22;17168;49.164;9.060;2022-08-16T09:55:48;25.80;74.50
30379;DHT22;17168;49.164;9.060;2022-08-16T09:58:22;25.90;73.90
30379;DHT22;17168;49.164;9.060;2022-08-16T10:01:14;26.00;73.10
30379;DHT22;17168;49.164;9.060;2022-08-16T10:03:46;26.20;72.50
30379;DHT22;17168;49.164;9.060;2022-08-16T10:06:36;26.30;71.90
30379;DHT22;17168;49.164;9.060;2022-08-16T10:09:09;26.40;71.10
30379;DHT22;17168;49.164;9.060;2022-08-16T10:11:42;26.40;71.00
30379;DHT22;17168;49.164;9.060;2022-08-16T10:14:50;26.50;69.90
30379;DHT22;17168;49.164;9.060;2022-08-16T10:17:24;26.60;69.90
30379;DHT22;17168;49.164;9.060;2022-08-16T10:19:57;26.60;69.20
30379;DHT22;17168;49.164;9.060;2022-08-16T10:22:30;26.70;69.10
30379;DHT22;17168;49.164;9.060;2022-08-16T10:25:04;26.80;68.50
30379;DHT22;17168;49.164;9.060;2022-08-16T10:27:39;26.80;68.00
30379;DHT22;17168;49.164;9.060;2022-08-16T10:30:24;26.80;67.50
30379;DHT22;17168;49.164;9.060;2022-08-16T10:33:01;26.80;67.30
30379;DHT22;17168;49.164;9.060;2022-08-16T10:35:33;26.80;66.70
30379;DHT22;17168;49.164;9.060;2022-08-16T10:38:18;26.90;66.60
30379;DHT22;17168;49.164;9.060;2022-08-16T10:40:58;26.90;66.50
30379;DHT22;17168;49.164;9.060;2022-08-16T10:43:30;26.90;66.40
30379;DHT22;17168;49.164;9.060;2022-08-16T10:46:04;27.00;66.10
30379;DHT22;17168;49.164;9.060;2022-08-16T10:48:56;27.10;65.90
30379;DHT22;17168;49.164;9.060;2022-08-16T10:51:31;27.20;66.20
30379;DHT22;17168;49.164;9.060;2022-08-16T10:54:16;27.30;65.50
30379;DHT22;17168;49.164;9.060;2022-08-16T10:57:01;27.30;65.10
30379;DHT22;17168;49.164;9.060;2022-08-16T10:59:34;27.50;64.90
30379;DHT22;17168;49.164;9.060;2022-08-16T11:02:25;27.60;64.60
30379;DHT22;17168;49.164;9.060;2022-08-16T11:05:16;27.70;64.40
30379;DHT22;17168;49.164;9.060;2022-08-16T11:07:49;27.80;64.10
30379;DHT22;17168;49.164;9.060;2022-08-16T11:10:29;27.90;63.50
30379;DHT22;17168;49.164;9.060;2022-08-16T11:13:23;28.00;63.10
30379;DHT22;17168;49.164;9.060;2022-08-16T11:16:18;28.10;62.70
30379;DHT22;17168;49.164;9.060;2022-08-16T11:19:11;28.20;62.30
30379;DHT22;17168;49.164;9.060;2022-08-16T11:21:45;28.20;61.80
30379;DHT22;17168;49.164;9.060;2022-08-16T11:24:37;28.30;61.40
30379;DHT22;17168;49.164;9.060;2022-08-16T11:27:19;28.40;60.90
30379;DHT22;17168;49.164;9.060;2022-08-16T11:29:55;28.40;60.50
30379;DHT22;17168;49.164;9.060;2022-08-16T11:32:28;28.50;60.30
30379;DHT22;17168;49.164;9.060;2022-08-16T11:35:07;28.50;59.90
30379;DHT22;17168;49.164;9.060;2022-08-16T11:37:47;28.60;59.40
30379;DHT22;17168;49.164;9.060;2022-08-16T11:40:41;28.60;59.00
30379;DHT22;17168;49.164;9.060;2022-08-16T11:43:27;28.60;58.70
30379;DHT22;17168;49.164;9.060;2022-08-16T11:46:01;28.70;58.50
30379;DHT22;17168;49.164;9.060;2022-08-16T11:48:53;28.80;58.40
30379;DHT22;17168;49.164;9.060;2022-08-16T11:51:25;28.90;58.20
30379;DHT22;17168;49.164;9.060;2022-08-16T11:53:57;29.00;57.80
30379;DHT22;17168;49.164;9.060;2022-08-16T11:56:29;29.10;57.50
30379;DHT22;17168;49.164;9.060;2022-08-16T11:59:23;29.20;57.20
30379;DHT22;17168;49.164;9.060;2022-08-16T12:01:59;29.60;56.80
30379;DHT22;17168;49.164;9.060;2022-08-16T12:04:51;30.20;56.50
30379;DHT22;17168;49.164;9.060;2022-08-16T12:07:24;30.90;56.00
30379;DHT22;17168;49.164;9.060;2022-08-16T12:09:55;31.40;55.50
30379;DHT22;17168;49.164;9.060;2022-08-16T12:12:27;31.80;54.80
30379;DHT22;17168;49.164;9.060;2022-08-16T12:15:00;32.30;54.30
30379;DHT22;17168;49.164;9.060;2022-08-16T12:17:33;32.80;53.40
30379;DHT22;17168;49.164;9.060;2022-08-16T12:22:49;33.90;51.70
30379;DHT22;17168;49.164;9.060;2022-08-16T12:25:26;34.30;51.70
30379;DHT22;17168;49.164;9.060;2022-08-16T12:27:58;34.60;50.50
30379;DHT22;17168;49.164;9.060;2022-08-16T12:30:37;34.90;49.80
30379;DHT22;17168;49.164;9.060;2022-08-16T12:33:12;35.00;49.00
30379;DHT22;17168;49.164;9.060;2022-08-16T12:35:56;34.90;48.50
30379;DHT22;17168;49.164;9.060;2022-08-16T12:38:30;34.80;48.20
30379;DHT22;17168;49.164;9.060;2022-08-16T12:41:18;34.70;48.10
30379;DHT22;17168;49.164;9.060;2022-08-16T12:43:56;35.00;47.70
30379;DHT22;17168;49.164;9.060;2022-08-16T12:46:33;35.40;47.20
30379;DHT22;17168;49.164;9.060;2022-08-16T12:49:07;35.60;46.70
30379;DHT22;17168;49.164;9.060;2022-08-16T12:51:43;35.80;46.10
30379;DHT22;17168;49.164;9.060;2022-08-16T12:54:30;36.10;45.20
30379;DHT22;17168;49.164;9.060;2022-08-16T12:57:05;36.00;44.90
30379;DHT22;17168;49.164;9.060;2022-08-16T12:59:44;35.80;44.70
30379;DHT22;17168;49.164;9.060;2022-08-16T13:02:17;35.50;44.70
30379;DHT22;17168;49.164;9.060;2022-08-16T13:05:04;35.50;44.80
30379;DHT22;17168;49.164;9.060;2022-08-16T13:07:39;35.60;44.70
30379;DHT22;17168;49.164;9.060;2022-08-16T13:10:22;35.80;44.30
30379;DHT22;17168;49.164;9.060;2022-08-16T13:13:09;35.90;43.90
30379;DHT22;17168;49.164;9.060;2022-08-16T13:15:41;36.20;43.80
30379;DHT22;17168;49.164;9.060;2022-08-16T13:18:31;36.40;44.20
30379;DHT22;17168;49.164;9.060;2022-08-16T13:21:06;36.60;43.70
30379;DHT22;17168;49.164;9.060;2022-08-16T13:23:41;36.80;43.30
30379;DHT22;17168;49.164;9.060;2022-08-16T13:26:14;36.80;42.40
30379;DHT22;17168;49.164;9.060;2022-08-16T13:28:48;36.40;42.00
30379;DHT22;17168;49.164;9.060;2022-08-16T13:31:20;35.90;41.90
30379;DHT22;17168;49.164;9.060;2022-08-16T13:33:56;35.50;42.30
30379;DHT22;17168;49.164;9.060;2022-08-16T13:36:29;35.10;42.40
30379;DHT22;17168;49.164;9.060;2022-08-16T13:39:19;34.90;42.70
30379;DHT22;17168;49.164;9.060;2022-08-16T13:41:55;34.70;42.70
30379;DHT22;17168;49.164;9.060;2022-08-16T13:44:26;34.70;42.90
30379;DHT22;17168;49.164;9.060;2022-08-16T13:47:18;34.60;42.90
30379;DHT22;17168;49.164;9.060;2022-08-16T13:49:51;34.80;42.90
30379;DHT22;17168;49.164;9.060;2022-08-16T13:52:24;34.80;42.80
30379;DHT22;17168;49.164;9.060;2022-08-16T13:55:04;34.80;42.90
30379;DHT22;17168;49.164;9.060;2022-08-16T13:57:48;34.80;43.50
30379;DHT22;17168;49.164;9.060;2022-08-16T14:00:40;35.10;43.00
30379;DHT22;17168;49.164;9.060;2022-08-16T14:03:12;35.30;42.90
30379;DHT22;17168;49.164;9.060;2022-08-16T14:05:50;35.50;42.80
30379;DHT22;17168;49.164;9.060;2022-08-16T14:08:23;35.70;42.60
30379;DHT22;17168;49.164;9.060;2022-08-16T14:10:58;36.00;42.50
30379;DHT22;17168;49.164;9.060;2022-08-16T14:13:30;36.30;42.10
30379;DHT22;17168;49.164;9.060;2022-08-16T14:16:05;36.60;42.40
30379;DHT22;17168;49.164;9.060;2022-08-16T14:18:55;36.90;42.20
30379;DHT22;17168;49.164;9.060;2022-08-16T14:21:29;37.00;41.80
30379;DHT22;17168;49.164;9.060;2022-08-16T14:24:06;37.10;42.10
30379;DHT22;17168;49.164;9.060;2022-08-16T14:26:38;37.20;41.80
30379;DHT22;17168;49.164;9.060;2022-08-16T14:29:10;37.20;41.20
30379;DHT22;17168;49.164;9.060;2022-08-16T14:31:42;37.20;40.80
30379;DHT22;17168;49.164;9.060;2022-08-16T14:34:14;37.20;40.70
30379;DHT22;17168;49.164;9.060;2022-08-16T14:36:48;37.20;40.40
30379;DHT22;17168;49.164;9.060;2022-08-16T14:39:22;37.00;40.10
30379;DHT22;17168;49.164;9.060;2022-08-16T14:41:54;36.80;40.00
30379;DHT22;17168;49.164;9.060;2022-08-16T14:44:27;36.80;39.90
30379;DHT22;17168;49.164;9.060;2022-08-16T14:46:59;36.80;39.90
30379;DHT22;17168;49.164;9.060;2022-08-16T14:49:35;36.70;39.80
30379;DHT22;17168;49.164;9.060;2022-08-16T14:52:16;36.60;39.70
30379;DHT22;17168;49.164;9.060;2022-08-16T14:55:08;36.70;39.80
30379;DHT22;17168;49.164;9.060;2022-08-16T14:57:42;36.90;39.70
30379;DHT22;17168;49.164;9.060;2022-08-16T15:00:15;37.00;39.50
30379;DHT22;17168;49.164;9.060;2022-08-16T15:02:50;37.20;39.90
30379;DHT22;17168;49.164;9.060;2022-08-16T15:05:25;37.30;39.60
30379;DHT22;17168;49.164;9.060;2022-08-16T15:08:01;37.40;39.10
30379;DHT22;17168;49.164;9.060;2022-08-16T15:10:33;37.60;38.80
30379;DHT22;17168;49.164;9.060;2022-08-16T15:13:08;37.60;38.50
30379;DHT22;17168;49.164;9.060;2022-08-16T15:15:40;37.70;38.60
30379;DHT22;17168;49.164;9.060;2022-08-16T15:18:12;37.70;38.90
30379;DHT22;17168;49.164;9.060;2022-08-16T15:20:54;37.80;38.60
30379;DHT22;17168;49.164;9.060;2022-08-16T15:23:27;37.80;38.60
30379;DHT22;17168;49.164;9.060;2022-08-16T15:26:01;37.70;38.50
30379;DHT22;17168;49.164;9.060;2022-08-16T15:28:35;37.40;38.20
30379;DHT22;17168;49.164;9.060;2022-08-16T15:31:12;37.10;38.30
30379;DHT22;17168;49.164;9.060;2022-08-16T15:33:47;36.90;38.40
30379;DHT22;17168;49.164;9.060;2022-08-16T15:36:28;36.70;38.30
30379;DHT22;17168;49.164;9.060;2022-08-16T15:39:02;36.60;38.20
30379;DHT22;17168;49.164;9.060;2022-08-16T15:41:58;36.40;38.20
30379;DHT22;17168;49.164;9.060;2022-08-16T15:44:33;36.20;38.30
30379;DHT22;17168;49.164;9.060;2022-08-16T15:47:24;36.10;38.30
30379;DHT22;17168;49.164;9.060;2022-08-16T15:49:58;36.10;38.30
30379;DHT22;17168;49.164;9.060;2022-08-16T15:52:33;36.10;38.20
30379;DHT22;17168;49.164;9.060;2022-08-16T15:55:09;36.20;38.30
30379;DHT22;17168;49.164;9.060;2022-08-16T15:57:54;36.30;38.50
30379;DHT22;17168;49.164;9.060;2022-08-16T16:00:26;36.40;38.40
30379;DHT22;17168;49.164;9.060;2022-08-16T16:02:59;36.40;38.40
30379;DHT22;17168;49.164;9.060;2022-08-16T16:05:32;36.30;38.40
30379;DHT22;17168;49.164;9.060;2022-08-16T16:08:05;36.30;38.40
30379;DHT22;17168;49.164;9.060;2022-08-16T16:10:46;36.30;38.30
30379;DHT22;17168;49.164;9.060;2022-08-16T16:13:25;36.40;38.40
30379;DHT22;17168;49.164;9.060;2022-08-16T16:16:02;36.50;38.30
30379;DHT22;17168;49.164;9.060;2022-08-16T16:18:37;36.50;38.20
30379;DHT22;17168;49.164;9.060;2022-08-16T16:21:11;36.40;38.30
30379;DHT22;17168;49.164;9.060;2022-08-16T16:23:51;36.50;38.40
30379;DHT22;17168;49.164;9.060;2022-08-16T16:26:29;36.50;38.40
30379;DHT22;17168;49.164;9.060;2022-08-16T16:29:02;36.70;38.40
30379;DHT22;17168;49.164;9.060;2022-08-16T16:31:45;36.80;38.30
30379;DHT22;17168;49.164;9.060;2022-08-16T16:34:30;36.80;38.20
30379;DHT22;17168;49.164;9.060;2022-08-16T16:37:06;36.80;38.10
30379;DHT22;17168;49.164;9.060;2022-08-16T16:39:40;36.80;37.90